Time;durP1;ratioP1;P1;durP2;ratioP2;P2;SDS_P1;SDS_P2;PMS_P1;PMS_P2;Temp;Humidity;BMP_temperature;BMP_pressure;BME280_temperature;BME280_humidity;BME280_pressure;Samples;Min_cycle;Max_cycle;Signal;HPM_P1;HPM_P2
2022/10/04 00:00:41;;;;;;;10.50;7.18;;;12.00;99.90;;;;;;5057445;28;20725;-86
2022/10/04 00:03:35;;;;;;;10.68;7.00;;;11.80;99.90;;;;;;5059460;28;20305;-86
2022/10/04 00:06:26;;;;;;;9.30;6.30;;;12.00;99.90;;;;;;5071027;28;20224;-87
2022/10/04 00:09:22;;;;;;;8.13;6.15;;;12.00;99.90;;;;;;5062192;28;20587;-87
2022/10/04 00:12:18;;;;;;;9.98;6.70;;;11.90;99.90;;;;;;5073816;28;20220;-87
2022/10/04 00:15:19;;;;;;;11.43;6.65;;;12.00;99.90;;;;;;5064768;28;20687;-86
2022/10/04 00:18:21;;;;;;;9.93;6.60;;;12.00;99.90;;;;;;5058502;28;20244;-87
2022/10/04 00:21:10;;;;;;;11.95;6.75;;;12.00;99.90;;;;;;5055163;28;20675;-87
2022/10/04 00:24:10;;;;;;;11.10;7.00;;;12.00;99.90;;;;;;5064363;28;20228;-86
2022/10/04 00:27:20;;;;;;;10.73;6.50;;;12.10;99.90;;;;;;5068486;28;20227;-87
2022/10/04 00:30:21;;;;;;;10.30;6.20;;;12.10;99.90;;;;;;5076936;28;20216;-87
2022/10/04 00:33:10;;;;;;;8.80;6.25;;;12.10;99.90;;;;;;5062461;28;20630;-87
2022/10/04 00:36:02;;;;;;;9.68;6.13;;;12.00;99.90;;;;;;5064514;28;20330;-86
2022/10/04 00:39:04;;;;;;;8.75;5.43;;;12.00;99.90;;;;;;5064797;28;20553;-87
2022/10/04 00:42:09;;;;;;;8.88;6.10;;;11.90;99.90;;;;;;5069837;28;20223;-86
2022/10/04 00:45:02;;;;;;;14.05;5.63;;;11.90;99.90;;;;;;5089840;28;20209;-84
2022/10/04 00:48:14;;;;;;;11.45;6.32;;;11.90;99.90;;;;;;5093197;28;20238;-87
2022/10/04 00:51:12;;;;;;;14.13;6.05;;;12.00;99.90;;;;;;5063278;28;20329;-86
2022/10/04 00:54:09;;;;;;;7.28;5.43;;;12.00;99.90;;;;;;5062462;28;20352;-87
2022/10/04 00:57:02;;;;;;;11.40;5.65;;;11.90;99.90;;;;;;5060269;28;20221;-87
2022/10/04 00:59:53;;;;;;;11.98;5.82;;;11.90;99.90;;;;;;5063038;28;20216;-87
2022/10/04 01:02:52;;;;;;;9.23;5.38;;;11.90;99.90;;;;;;5073320;28;20286;-86
2022/10/04 01:05:44;;;;;;;11.65;5.85;;;11.90;99.90;;;;;;5063031;28;20232;-89
2022/10/04 01:08:37;;;;;;;14.90;6.10;;;11.90;99.90;;;;;;5055973;28;20215;-86
2022/10/04 01:11:29;;;;;;;10.02;5.03;;;11.90;99.90;;;;;;5066893;28;20224;-85
2022/10/04 01:14:25;;;;;;;10.55;5.50;;;11.90;99.90;;;;;;5058988;28;20228;-83
2022/10/04 01:17:13;;;;;;;16.92;5.30;;;11.90;99.90;;;;;;5060889;28;20212;-82
2022/10/04 01:20:04;;;;;;;9.82;5.20;;;11.90;99.90;;;;;;5059216;28;20227;-86
2022/10/04 01:22:54;;;;;;;11.82;4.93;;;11.90;99.90;;;;;;5073174;28;20309;-87
2022/10/04 01:25:45;;;;;;;11.57;5.00;;;11.80;99.90;;;;;;5068654;28;20217;-80
2022/10/04 01:28:35;;;;;;;8.30;5.00;;;11.90;99.90;;;;;;5065388;28;20217;-85
2022/10/04 01:31:24;;;;;;;7.72;4.70;;;11.80;99.90;;;;;;5065415;28;20215;-85
2022/10/04 01:34:15;;;;;;;11.63;4.63;;;11.90;99.90;;;;;;5059353;28;20224;-84
2022/10/04 01:37:03;;;;;;;9.75;4.05;;;11.80;99.90;;;;;;5057883;28;20315;-85
2022/10/04 01:39:54;;;;;;;10.98;4.82;;;11.80;99.90;;;;;;5061545;28;20708;-86
2022/10/04 01:42:48;;;;;;;7.97;4.57;;;11.80;99.90;;;;;;5067266;28;20732;-80
2022/10/04 01:45:42;;;;;;;8.18;4.20;;;11.80;99.90;;;;;;5072630;28;20695;-85
2022/10/04 01:48:36;;;;;;;10.65;4.30;;;11.80;99.90;;;;;;5058379;28;20751;-85
2022/10/04 01:51:30;;;;;;;11.52;4.47;;;11.80;99.90;;;;;;5059413;28;20338;-82
2022/10/04 01:54:23;;;;;;;10.15;4.32;;;11.70;99.90;;;;;;5055167;28;20306;-83
2022/10/04 01:57:17;;;;;;;7.55;4.72;;;11.70;99.90;;;;;;5043659;28;20854;-83
2022/10/04 02:00:09;;;;;;;7.70;3.90;;;11.70;99.90;;;;;;5059337;28;20255;-83
2022/10/04 02:03:02;;;;;;;10.00;4.43;;;11.70;99.90;;;;;;5055929;28;20220;-84
2022/10/04 02:05:54;;;;;;;12.00;4.57;;;11.80;99.90;;;;;;5056085;28;20561;-82
2022/10/04 02:08:49;;;;;;;11.95;4.40;;;11.80;99.90;;;;;;5053425;28;20220;-83
2022/10/04 02:11:41;;;;;;;7.78;3.90;;;11.80;99.90;;;;;;5044389;28;20217;-84
2022/10/04 02:14:34;;;;;;;6.75;4.03;;;11.70;99.90;;;;;;5058716;28;20218;-80
2022/10/04 02:17:26;;;;;;;12.20;3.90;;;11.70;99.90;;;;;;5072862;28;20228;-83
2022/10/04 02:20:17;;;;;;;9.90;4.07;;;11.70;99.90;;;;;;5063735;28;20655;-82
2022/10/04 02:23:07;;;;;;;7.55;3.58;;;11.60;99.90;;;;;;5055583;28;20236;-82
2022/10/04 02:25:55;;;;;;;9.13;3.70;;;11.60;99.90;;;;;;5054991;28;20291;-86
2022/10/04 02:28:44;;;;;;;8.23;3.50;;;11.70;99.90;;;;;;5060415;28;20224;-83
2022/10/04 02:34:41;;;;;;;8.32;3.78;;;11.70;99.90;;;;;;5055932;28;21045;-84
2022/10/04 02:37:30;;;;;;;7.10;3.60;;;11.70;99.90;;;;;;5039434;28;20220;-84
2022/10/04 02:40:23;;;;;;;7.13;3.53;;;11.70;99.90;;;;;;5045078;28;20925;-86
2022/10/04 02:43:16;;;;;;;5.88;3.13;;;11.70;99.90;;;;;;5056891;28;20255;-86
2022/10/04 02:46:08;;;;;;;8.45;3.72;;;11.60;99.90;;;;;;5046563;28;20242;-86
2022/10/04 02:49:00;;;;;;;8.05;3.60;;;11.70;99.90;;;;;;5042098;28;20224;-83
2022/10/04 02:51:54;;;;;;;7.75;3.78;;;11.80;99.90;;;;;;5047181;28;20236;-82
2022/10/04 02:54:46;;;;;;;8.38;3.72;;;11.70;99.90;;;;;;5038525;28;20224;-84
2022/10/04 02:57:35;;;;;;;6.32;2.97;;;11.70;99.90;;;;;;5036227;28;20233;-85
2022/10/04 03:00:26;;;;;;;6.15;3.13;;;11.70;99.90;;;;;;5046036;28;21192;-82
2022/10/04 03:03:23;;;;;;;5.78;2.72;;;11.70;99.90;;;;;;5035146;28;20228;-83
2022/10/04 03:06:17;;;;;;;8.48;3.25;;;11.70;99.90;;;;;;5035462;28;20611;-84
2022/10/04 03:09:06;;;;;;;5.88;3.05;;;11.70;99.90;;;;;;5037675;28;20293;-85
2022/10/04 03:11:55;;;;;;;4.85;2.55;;;11.70;99.90;;;;;;5040065;28;20224;-84
2022/10/04 03:14:45;;;;;;;7.57;3.30;;;11.70;99.90;;;;;;5036984;28;20238;-83
2022/10/04 03:17:34;;;;;;;7.93;2.88;;;11.80;99.90;;;;;;5042126;28;20229;-83
2022/10/04 03:20:23;;;;;;;7.93;2.92;;;11.70;99.90;;;;;;5035051;28;20290;-83
2022/10/04 03:23:15;;;;;;;6.05;3.20;;;11.60;99.90;;;;;;5036586;28;20307;-84
2022/10/04 03:26:12;;;;;;;6.55;3.15;;;11.70;99.90;;;;;;5033478;28;20320;-84
2022/10/04 03:29:01;;;;;;;5.70;3.22;;;11.70;99.90;;;;;;5036299;28;20220;-86
2022/10/04 03:31:55;;;;;;;7.63;3.70;;;11.70;99.90;;;;;;5033738;28;20216;-84
2022/10/04 03:34:52;;;;;;;14.10;4.78;;;11.70;99.90;;;;;;5029228;28;20305;-84
2022/10/04 03:37:40;;;;;;;8.65;4.10;;;11.80;99.90;;;;;;5035843;28;20239;-86
2022/10/04 03:40:32;;;;;;;6.57;3.88;;;11.70;99.90;;;;;;5034628;28;20934;-86
2022/10/04 03:43:29;;;;;;;6.35;3.78;;;11.60;99.90;;;;;;5028599;28;20282;-84
2022/10/04 03:46:21;;;;;;;7.30;4.28;;;11.80;99.90;;;;;;5033576;28;20328;-85
2022/10/04 03:49:15;;;;;;;8.82;3.88;;;11.70;99.90;;;;;;5040546;28;20593;-85
2022/10/04 03:52:04;;;;;;;7.20;4.53;;;11.70;99.90;;;;;;5036759;28;20276;-83
2022/10/04 03:54:57;;;;;;;6.85;4.60;;;11.70;99.90;;;;;;5042040;28;20225;-84
2022/10/04 03:57:47;;;;;;;7.35;4.60;;;11.70;99.90;;;;;;5056048;28;20213;-81
2022/10/04 04:00:41;;;;;;;8.40;5.30;;;11.60;99.90;;;;;;5042438;28;20224;-82
2022/10/04 04:03:36;;;;;;;8.30;4.85;;;11.60;99.90;;;;;;5039335;28;20235;-82
2022/10/04 04:06:29;;;;;;;13.23;5.07;;;11.80;99.90;;;;;;5027277;28;20328;-82
2022/10/04 04:09:25;;;;;;;7.65;5.00;;;11.70;99.90;;;;;;5041907;28;20221;-84
2022/10/04 04:12:18;;;;;;;5.10;4.38;;;11.70;99.90;;;;;;5042126;28;20220;-83
2022/10/04 04:15:11;;;;;;;7.63;4.50;;;11.80;99.90;;;;;;5021490;28;20237;-84
2022/10/04 04:18:02;;;;;;;7.78;4.18;;;11.80;99.90;;;;;;5045110;28;20209;-82
2022/10/04 04:20:55;;;;;;;7.13;4.30;;;11.80;99.90;;;;;;5032974;28;20217;-82
2022/10/04 04:23:47;;;;;;;9.25;4.65;;;11.80;99.90;;;;;;5029341;28;20228;-82
2022/10/04 04:26:39;;;;;;;5.82;4.30;;;11.90;99.90;;;;;;5029140;28;20229;-82
2022/10/04 04:29:33;;;;;;;7.47;4.30;;;11.80;99.90;;;;;;5036828;28;20283;-81
2022/10/04 04:32:27;;;;;;;7.95;4.00;;;11.80;99.90;;;;;;5040770;28;20241;-83
2022/10/04 04:35:24;;;;;;;8.68;4.40;;;11.90;99.90;;;;;;5043289;28;20713;-83
2022/10/04 04:38:22;;;;;;;9.57;4.32;;;11.90;99.90;;;;;;5039482;28;20254;-83
2022/10/04 04:41:11;;;;;;;7.95;4.40;;;11.80;99.90;;;;;;5028985;28;20232;-83
2022/10/04 04:44:00;;;;;;;7.45;4.55;;;11.90;99.90;;;;;;5032726;28;20240;-82
2022/10/04 04:46:49;;;;;;;9.88;4.47;;;11.90;99.90;;;;;;5039373;28;20280;-84
2022/10/04 04:49:40;;;;;;;8.52;4.38;;;11.90;99.90;;;;;;5038343;28;20225;-85
2022/10/04 04:52:30;;;;;;;8.35;4.45;;;11.90;99.90;;;;;;5053286;28;20220;-85
2022/10/04 04:55:21;;;;;;;11.80;4.90;;;11.80;99.90;;;;;;5060120;28;20308;-83
2022/10/04 04:58:20;;;;;;;13.90;4.90;;;11.90;99.90;;;;;;5064702;28;20227;-86
2022/10/04 05:01:18;;;;;;;10.20;4.80;;;12.00;99.90;;;;;;5072489;28;20239;-81
2022/10/04 05:04:17;;;;;;;11.27;4.75;;;11.90;99.90;;;;;;5053141;28;20365;-82
2022/10/04 05:07:18;;;;;;;8.23;4.05;;;12.00;99.90;;;;;;5070784;28;20220;-82
2022/10/04 05:10:28;;;;;;;10.55;4.00;;;12.00;99.90;;;;;;5064155;28;20691;-83
2022/10/04 05:13:18;;;;;;;10.60;3.92;;;12.00;99.90;;;;;;5058573;28;20262;-81
2022/10/04 05:16:12;;;;;;;8.18;4.07;;;12.10;99.90;;;;;;5063052;28;20224;-85
2022/10/04 05:19:03;;;;;;;6.70;3.80;;;12.00;99.90;;;;;;5058791;28;20231;-82
2022/10/04 05:21:54;;;;;;;7.57;3.97;;;12.00;99.90;;;;;;5069451;28;20244;-86
2022/10/04 05:24:46;;;;;;;9.70;3.80;;;12.00;99.90;;;;;;5063908;28;20362;-87
2022/10/04 05:27:39;;;;;;;11.15;3.90;;;12.00;99.90;;;;;;5073635;28;20230;-88
2022/10/04 05:30:47;;;;;;;6.85;3.75;;;12.10;99.90;;;;;;5067668;28;20223;-88
2022/10/04 05:33:46;;;;;;;7.07;3.78;;;12.10;99.90;;;;;;5063984;28;20311;-84
2022/10/04 05:36:51;;;;;;;7.97;3.92;;;12.10;99.90;;;;;;5067514;28;20223;-86
2022/10/04 05:39:47;;;;;;;5.57;3.08;;;12.20;99.90;;;;;;5053729;28;20718;-82
2022/10/04 05:42:40;;;;;;;7.60;3.30;;;12.20;99.90;;;;;;5067484;28;20217;-82
2022/10/04 05:45:31;;;;;;;12.90;4.07;;;12.10;99.90;;;;;;5058768;28;20246;-82
2022/10/04 05:48:19;;;;;;;9.95;3.65;;;12.10;99.90;;;;;;5058750;28;21753;-83
2022/10/04 05:51:18;;;;;;;9.40;3.80;;;12.20;99.90;;;;;;5050796;28;20231;-87
2022/10/04 05:54:10;;;;;;;8.15;2.92;;;12.20;99.90;;;;;;5071644;28;20400;-80
2022/10/04 05:57:31;;;;;;;7.97;3.38;;;12.20;99.90;;;;;;5072602;28;20365;-86
2022/10/04 06:00:21;;;;;;;6.78;3.22;;;12.30;99.90;;;;;;5062641;28;20220;-78
2022/10/04 06:03:38;;;;;;;6.63;3.05;;;12.40;99.90;;;;;;5068585;28;20216;-82
2022/10/04 06:06:37;;;;;;;6.93;3.22;;;12.40;99.90;;;;;;5054498;28;20812;-83
2022/10/04 06:09:58;;;;;;;7.95;3.78;;;12.50;99.90;;;;;;5071534;28;20786;-80
2022/10/04 06:12:55;;;;;;;8.05;3.65;;;12.40;99.90;;;;;;5012610;28;20597;-81
2022/10/04 06:15:59;;;;;;;8.88;3.50;;;12.50;99.90;;;;;;5060584;28;20220;-81
2022/10/04 06:19:18;;;;;;;5.00;2.80;;;12.70;99.90;;;;;;5062429;28;20227;-81
2022/10/04 06:22:16;;;;;;;7.45;3.22;;;12.60;99.90;;;;;;5056165;28;20254;-81
2022/10/04 06:25:08;;;;;;;6.28;2.92;;;12.60;99.90;;;;;;5071541;28;20297;-81
2022/10/04 06:28:10;;;;;;;8.55;3.15;;;12.60;99.90;;;;;;5067437;28;20220;-82
2022/10/04 06:31:16;;;;;;;5.18;2.90;;;12.80;99.90;;;;;;5066731;28;20297;-82
2022/10/04 06:34:21;;;;;;;7.22;2.95;;;12.80;99.90;;;;;;5057723;28;20307;-76
2022/10/04 06:37:26;;;;;;;5.60;2.90;;;12.80;99.90;;;;;;5061648;28;20311;-79
2022/10/04 06:40:32;;;;;;;10.88;2.80;;;12.90;99.90;;;;;;5054989;28;20599;-82
2022/10/04 06:43:34;;;;;;;6.93;2.88;;;12.80;99.90;;;;;;5056981;28;20691;-81
2022/10/04 06:46:29;;;;;;;6.22;2.70;;;12.80;99.90;;;;;;5055665;28;20745;-82
2022/10/04 06:49:33;;;;;;;7.30;3.20;;;12.80;99.90;;;;;;5051710;28;20220;-81
2022/10/04 06:52:46;;;;;;;7.63;3.00;;;12.80;99.90;;;;;;5062183;28;20240;-81
2022/10/04 06:56:11;;;;;;;8.05;2.90;;;12.80;99.90;;;;;;5073713;28;20237;-80
2022/10/04 06:59:23;;;;;;;6.70;3.33;;;12.80;99.90;;;;;;5041195;28;20263;-80
2022/10/04 07:02:17;;;;;;;5.05;3.47;;;12.90;99.90;;;;;;5063938;28;20294;-81
2022/10/04 07:05:18;;;;;;;6.95;3.80;;;12.80;99.90;;;;;;5052340;28;20236;-81
2022/10/04 07:08:29;;;;;;;11.13;3.50;;;12.90;99.90;;;;;;5054102;28;20212;-82
2022/10/04 07:11:23;;;;;;;9.68;3.83;;;13.00;99.90;;;;;;5053070;28;20230;-82
2022/10/04 07:14:18;;;;;;;5.93;3.05;;;13.00;99.90;;;;;;5064861;28;20250;-80
2022/10/04 07:17:13;;;;;;;7.03;3.40;;;12.90;99.90;;;;;;5058777;28;20698;-81
2022/10/04 07:20:04;;;;;;;5.97;3.15;;;13.00;99.90;;;;;;5067931;28;20228;-81
2022/10/04 07:22:57;;;;;;;8.75;3.70;;;13.10;99.90;;;;;;5049941;28;20229;-80
2022/10/04 07:25:49;;;;;;;6.63;3.13;;;13.10;99.90;;;;;;5053629;28;20228;-81
2022/10/04 07:32:02;;;;;;;7.03;3.17;;;13.10;99.90;;;;;;5065466;28;20695;-81
2022/10/04 07:34:55;;;;;;;8.15;3.67;;;13.10;99.90;;;;;;5067146;28;20320;-81
2022/10/04 07:37:51;;;;;;;6.90;3.08;;;13.20;99.90;;;;;;5063942;28;20239;-81
2022/10/04 07:40:46;;;;;;;6.15;2.67;;;13.20;99.90;;;;;;5053547;28;20243;-81
2022/10/04 07:43:47;;;;;;;6.55;3.40;;;13.30;99.90;;;;;;5051537;28;20224;-81
2022/10/04 07:46:44;;;;;;;9.68;3.67;;;13.30;99.90;;;;;;5053918;28;20220;-81
2022/10/04 07:49:40;;;;;;;9.50;3.80;;;13.30;99.90;;;;;;5061170;28;20240;-83
2022/10/04 07:52:41;;;;;;;8.77;3.50;;;13.30;99.90;;;;;;5062958;28;20598;-80
2022/10/04 07:55:42;;;;;;;4.47;2.78;;;13.50;99.90;;;;;;5057740;28;20250;-81
2022/10/04 07:58:42;;;;;;;7.50;3.03;;;13.50;99.90;;;;;;5067760;28;20250;-80
2022/10/04 08:01:39;;;;;;;6.18;3.00;;;13.60;99.90;;;;;;5066762;28;20232;-81
2022/10/04 08:04:42;;;;;;;4.80;2.50;;;13.50;99.90;;;;;;5053913;28;20643;-81
2022/10/04 08:07:45;;;;;;;6.30;2.70;;;13.60;99.90;;;;;;5052637;28;20248;-81
2022/10/04 08:10:44;;;;;;;6.63;3.13;;;13.70;99.90;;;;;;5062607;28;20220;-81
2022/10/04 08:13:41;;;;;;;7.25;2.70;;;13.70;99.90;;;;;;5054172;28;20217;-81
2022/10/04 08:16:36;;;;;;;6.97;2.58;;;13.70;99.90;;;;;;5069295;28;20900;-81
2022/10/04 08:19:42;;;;;;;8.15;2.55;;;14.00;99.90;;;;;;5055180;28;20336;-81
2022/10/04 08:22:50;;;;;;;6.95;2.60;;;13.90;99.90;;;;;;5066435;28;20225;-81
2022/10/04 08:25:44;;;;;;;5.47;2.63;;;13.90;99.90;;;;;;5036370;28;20239;-81
2022/10/04 08:32:03;;;;;;;5.65;2.50;;;14.10;99.90;;;;;;5056331;28;20275;-81
2022/10/04 08:35:11;;;;;;;2.83;2.00;;;14.00;99.90;;;;;;5054890;28;20272;-81
2022/10/04 08:38:21;;;;;;;7.40;2.65;;;14.10;99.90;;;;;;5054970;28;20642;-82
2022/10/04 08:41:47;;;;;;;5.03;2.60;;;14.40;99.90;;;;;;5054899;28;20311;-81
2022/10/04 08:45:24;;;;;;;4.22;2.22;;;14.60;99.90;;;;;;5090401;28;20860;-80
2022/10/04 08:48:57;;;;;;;4.20;2.30;;;14.70;99.90;;;;;;5065241;28;20341;-81
2022/10/04 08:52:28;;;;;;;4.72;2.83;;;14.70;99.90;;;;;;5045207;28;20227;-81
2022/10/04 08:55:57;;;;;;;6.22;2.35;;;14.80;99.90;;;;;;5042589;28;20228;-81
2022/10/04 08:59:19;;;;;;;3.55;2.00;;;14.80;99.90;;;;;;5039505;28;20227;-81
2022/10/04 09:02:46;;;;;;;7.65;2.50;;;14.90;99.90;;;;;;5036904;28;20592;-80
2022/10/04 09:06:01;;;;;;;5.82;1.88;;;14.90;99.90;;;;;;5022553;28;20225;-79
2022/10/04 09:09:27;;;;;;;2.67;1.98;;;14.90;99.90;;;;;;5023178;28;22139;-80
2022/10/04 09:12:50;;;;;;;7.40;1.70;;;14.80;99.90;;;;;;5026630;28;20582;-81
2022/10/04 09:15:53;;;;;;;4.95;1.77;;;15.00;99.90;;;;;;5031359;28;20225;-81
2022/10/04 09:18:58;;;;;;;2.50;1.67;;;15.00;99.90;;;;;;5033531;28;20225;-81
2022/10/04 09:22:15;;;;;;;4.03;1.80;;;15.00;99.90;;;;;;5038534;28;20212;-81
2022/10/04 09:25:32;;;;;;;4.28;1.80;;;15.10;99.90;;;;;;5034359;28;20322;-81
2022/10/04 09:29:12;;;;;;;1.98;1.58;;;15.30;99.90;;;;;;5039850;28;20225;-82
2022/10/04 09:32:29;;;;;;;3.78;1.60;;;15.30;99.90;;;;;;5043988;28;20233;-80
2022/10/04 09:35:48;;;;;;;4.68;1.80;;;15.30;99.90;;;;;;5039190;28;20334;-82
2022/10/04 09:39:07;;;;;;;3.90;1.67;;;15.30;99.90;;;;;;5033192;28;20684;-82
2022/10/04 09:42:46;;;;;;;2.05;1.70;;;15.20;99.90;;;;;;5027591;28;20221;-82
2022/10/04 09:45:55;;;;;;;6.43;3.35;;;15.10;99.90;;;;;;5021371;28;20237;-80
2022/10/04 09:48:53;;;;;;;3.83;1.40;;;15.20;99.90;;;;;;5029855;28;20213;-78
2022/10/04 09:52:01;;;;;;;2.53;1.50;;;15.20;99.90;;;;;;5035392;28;20261;-81
2022/10/04 09:55:21;;;;;;;79.47;39.28;;;15.20;99.90;;;;;;5034142;28;20225;-80
2022/10/04 09:58:42;;;;;;;2.70;1.63;;;15.10;99.90;;;;;;5028624;28;20333;-81
2022/10/04 10:01:39;;;;;;;3.45;1.80;;;14.90;99.90;;;;;;5040235;28;20700;-80
2022/10/04 10:04:39;;;;;;;2.40;1.80;;;14.80;99.90;;;;;;5035116;28;20248;-81
2022/10/04 10:07:46;;;;;;;2.83;1.83;;;14.80;99.90;;;;;;5037895;28;20842;-81
2022/10/04 10:14:20;;;;;;;6.18;1.92;;;14.80;99.90;;;;;;5026753;28;20216;-81
2022/10/04 10:17:19;;;;;;;3.45;1.80;;;14.90;99.90;;;;;;5046316;28;20268;-81
2022/10/04 10:20:35;;;;;;;2.50;1.73;;;14.80;99.90;;;;;;5047667;28;20275;-79
2022/10/04 10:24:03;;;;;;;3.75;1.73;;;14.90;99.90;;;;;;5030915;28;20270;-80
2022/10/04 10:27:09;;;;;;;4.25;1.73;;;14.90;99.90;;;;;;5038623;28;20271;-80
2022/10/04 10:30:16;;;;;;;4.10;1.92;;;15.20;99.90;;;;;;5035413;28;20228;-80
2022/10/04 10:33:36;;;;;;;5.03;1.70;;;15.50;99.90;;;;;;5038353;28;20310;-79
2022/10/04 10:36:57;;;;;;;3.38;1.60;;;15.70;99.90;;;;;;5039253;28;20298;-80
2022/10/04 10:40:30;;;;;;;2.67;1.70;;;15.70;99.90;;;;;;5036442;28;20232;-81
2022/10/04 10:43:31;;;;;;;4.03;1.70;;;15.70;99.90;;;;;;5001364;28;20297;-81
2022/10/04 10:46:32;;;;;;;5.00;1.70;;;15.70;99.90;;;;;;5034390;28;21012;-81
2022/10/04 10:49:48;;;;;;;3.97;1.80;;;15.60;99.90;;;;;;5038394;28;20239;-83
2022/10/04 10:53:15;;;;;;;3.92;1.70;;;15.50;99.90;;;;;;5059548;28;20718;-82
2022/10/04 10:56:44;;;;;;;4.00;1.83;;;15.40;99.90;;;;;;5052490;28;20212;-80
2022/10/04 11:00:07;;;;;;;5.00;1.92;;;15.40;99.90;;;;;;5062541;28;20232;-80
2022/10/04 11:03:24;;;;;;;2.47;1.70;;;15.40;99.90;;;;;;5069553;28;20302;-80
2022/10/04 11:06:53;;;;;;;2.85;1.40;;;15.50;99.90;;;;;;5057738;28;20870;-80
2022/10/04 11:10:08;;;;;;;3.50;1.88;;;15.30;99.90;;;;;;5045286;28;20235;-80
2022/10/04 11:13:28;;;;;;;2.75;1.60;;;15.20;99.90;;;;;;5049103;28;20864;-79
2022/10/04 11:16:50;;;;;;;3.45;1.70;;;15.50;99.90;;;;;;5065988;28;20215;-80
2022/10/04 11:20:14;;;;;;;3.83;1.90;;;15.60;99.90;;;;;;5068183;28;20224;-81
2022/10/04 11:23:50;;;;;;;5.15;1.80;;;15.60;99.90;;;;;;5055635;28;20636;-81
2022/10/04 11:27:27;;;;;;;2.05;1.40;;;15.50;99.90;;;;;;5065867;28;20232;-81
2022/10/04 11:30:24;;;;;;;2.97;1.90;;;15.40;99.90;;;;;;5011062;28;20265;-81
2022/10/04 11:33:54;;;;;;;3.20;2.00;;;15.30;99.90;;;;;;5016755;28;20643;-81
2022/10/04 11:37:00;;;;;;;3.88;1.95;;;15.10;99.90;;;;;;5055857;28;20224;-81
2022/10/04 11:40:10;;;;;;;4.20;1.88;;;15.10;99.90;;;;;;5051763;28;20220;-81
2022/10/04 11:43:23;;;;;;;2.10;1.60;;;15.30;99.90;;;;;;5054562;28;20239;-80
2022/10/04 11:46:23;;;;;;;2.55;1.60;;;15.60;99.90;;;;;;5063320;28;20772;-80
2022/10/04 11:49:37;;;;;;;2.63;1.50;;;15.40;99.90;;;;;;5068064;28;20345;-77
2022/10/04 11:53:08;;;;;;;4.22;1.77;;;15.40;99.90;;;;;;5051889;28;20712;-76
2022/10/04 11:56:22;;;;;;;2.70;1.67;;;15.40;99.90;;;;;;5068145;28;20242;-78
2022/10/04 11:59:31;;;;;;;5.13;1.90;;;15.30;99.90;;;;;;5073957;28;20270;-78
2022/10/04 12:03:06;;;;;;;3.72;1.50;;;15.50;99.90;;;;;;5057985;28;20247;-78
2022/10/04 12:06:14;;;;;;;2.78;1.90;;;15.40;99.90;;;;;;5044372;28;20232;-76
2022/10/04 12:09:13;;;;;;;5.55;1.85;;;15.30;99.90;;;;;;5070703;28;20212;-77
2022/10/04 12:12:38;;;;;;;5.38;1.63;;;15.40;99.90;;;;;;5069785;28;20232;-77
2022/10/04 12:15:44;;;;;;;4.15;1.95;;;15.70;99.90;;;;;;5051987;28;20242;-77
2022/10/04 12:18:58;;;;;;;2.70;1.67;;;15.80;99.90;;;;;;5061078;28;20236;-77
2022/10/04 12:22:01;;;;;;;2.00;1.60;;;15.90;99.90;;;;;;5054004;28;20221;-75
2022/10/04 12:25:41;;;;;;;5.78;1.92;;;15.80;99.90;;;;;;5067818;28;20361;-77
2022/10/04 12:28:55;;;;;;;3.22;1.73;;;15.60;99.90;;;;;;5005962;28;20229;-77
2022/10/04 12:31:52;;;;;;;3.33;1.85;;;15.50;99.90;;;;;;5010127;28;20676;-78
2022/10/04 12:34:49;;;;;;;4.05;1.83;;;15.60;99.90;;;;;;5056057;28;20518;-78
2022/10/04 12:37:43;;;;;;;4.07;2.63;;;15.80;99.90;;;;;;5056891;28;20223;-77
2022/10/04 12:40:43;;;;;;;2.80;1.90;;;15.90;99.90;;;;;;5059661;28;20227;-77
2022/10/04 12:43:40;;;;;;;8.15;1.95;;;15.80;99.90;;;;;;5057259;28;20227;-76
2022/10/04 12:46:37;;;;;;;5.63;1.90;;;15.90;99.90;;;;;;5071716;28;20236;-76
2022/10/04 12:49:40;;;;;;;5.75;2.08;;;15.90;99.90;;;;;;5058361;28;20860;-76
2022/10/04 12:52:33;;;;;;;4.45;1.90;;;15.90;99.90;;;;;;5071199;28;20230;-80
2022/10/04 12:55:49;;;;;;;3.67;1.65;;;16.00;99.90;;;;;;5062171;28;20216;-79
2022/10/04 12:58:59;;;;;;;7.93;2.05;;;15.90;99.90;;;;;;5056639;28;20259;-79
2022/10/04 13:02:01;;;;;;;6.25;2.10;;;15.80;99.90;;;;;;5065397;28;20228;-80
2022/10/04 13:04:55;;;;;;;5.40;2.15;;;15.80;99.90;;;;;;5070691;28;20568;-80
2022/10/04 13:08:08;;;;;;;4.38;2.20;;;15.80;99.90;;;;;;5064535;28;20768;-80
2022/10/04 13:11:10;;;;;;;3.42;1.90;;;15.80;99.90;;;;;;5063739;28;20243;-80
2022/10/04 13:14:28;;;;;;;3.42;1.63;;;15.80;99.90;;;;;;5055815;28;20225;-81
2022/10/04 13:17:32;;;;;;;3.70;2.03;;;15.90;99.90;;;;;;5040884;28;20863;-79
2022/10/04 13:20:50;;;;;;;3.40;1.70;;;15.90;99.90;;;;;;5051739;28;20231;-80
2022/10/04 13:23:56;;;;;;;3.55;1.90;;;15.60;99.90;;;;;;5056107;28;20226;-82
2022/10/04 13:26:51;;;;;;;3.35;1.80;;;15.70;99.90;;;;;;5073274;28;20243;-81
2022/10/04 13:29:48;;;;;;;14.88;3.17;;;15.80;99.90;;;;;;5052131;28;20271;-81
2022/10/04 13:32:45;;;;;;;6.65;1.90;;;15.80;99.90;;;;;;5058878;28;20243;-81
2022/10/04 13:35:40;;;;;;;5.97;1.80;;;15.70;99.90;;;;;;5068678;28;20212;-81
2022/10/04 13:39:01;;;;;;;7.85;2.03;;;15.70;99.90;;;;;;5066983;28;20239;-81
2022/10/04 13:42:12;;;;;;;5.72;1.85;;;15.70;99.90;;;;;;5052930;28;20303;-82
2022/10/04 13:45:17;;;;;;;4.85;1.75;;;15.70;99.90;;;;;;5059455;28;20220;-82
2022/10/04 13:48:26;;;;;;;3.70;1.73;;;15.90;99.90;;;;;;5074958;28;20280;-81
2022/10/04 13:51:43;;;;;;;4.90;1.45;;;16.00;99.90;;;;;;5069089;28;20235;-82
2022/10/04 13:58:22;;;;;;;5.65;1.55;;;15.90;99.90;;;;;;5059009;28;20216;-82
2022/10/04 14:01:42;;;;;;;3.80;1.80;;;15.70;99.90;;;;;;5059999;28;20297;-81
2022/10/04 14:04:53;;;;;;;4.35;2.60;;;15.60;99.90;;;;;;5044690;28;20228;-79
2022/10/04 14:07:58;;;;;;;3.83;2.38;;;15.50;99.90;;;;;;5044904;28;20795;-79
2022/10/04 14:11:33;;;;;;;5.60;2.40;;;15.50;99.90;;;;;;5042648;28;20766;-79
2022/10/04 14:14:46;;;;;;;6.22;2.20;;;15.50;99.90;;;;;;5044963;28;20217;-79
2022/10/04 14:18:09;;;;;;;4.30;2.00;;;15.50;99.90;;;;;;5027993;28;20224;-78
2022/10/04 14:21:32;;;;;;;3.35;1.90;;;15.40;99.90;;;;;;5043759;28;20303;-78
2022/10/04 14:24:57;;;;;;;5.50;2.97;;;15.60;99.90;;;;;;5011508;28;20244;-78
2022/10/04 14:28:32;;;;;;;3.97;2.10;;;15.70;99.90;;;;;;5044866;28;20307;-78
2022/10/04 14:31:46;;;;;;;3.60;2.00;;;15.60;99.90;;;;;;5044166;28;20692;-83
2022/10/04 14:34:55;;;;;;;4.25;2.42;;;15.50;99.90;;;;;;5043148;28;20227;-79
2022/10/04 14:38:19;;;;;;;4.10;2.22;;;15.40;99.90;;;;;;5041872;28;20235;-80
2022/10/04 14:41:49;;;;;;;4.38;1.70;;;15.40;99.90;;;;;;5011384;28;20809;-80
2022/10/04 14:45:04;;;;;;;4.72;1.77;;;15.30;99.90;;;;;;5040489;28;20312;-80
2022/10/04 14:48:40;;;;;;;6.07;2.28;;;15.40;99.90;;;;;;5045899;28;20235;-80
2022/10/04 14:51:48;;;;;;;4.75;2.20;;;15.30;99.90;;;;;;5025023;28;20228;-80
2022/10/04 14:54:48;;;;;;;5.00;1.98;;;15.30;99.90;;;;;;5016873;28;20217;-81
2022/10/04 14:57:59;;;;;;;4.53;2.00;;;15.30;99.90;;;;;;5002951;28;21436;-80
2022/10/04 15:01:14;;;;;;;3.67;1.70;;;15.30;99.90;;;;;;5016042;28;20698;-81
2022/10/04 15:04:19;;;;;;;4.88;2.03;;;15.20;99.90;;;;;;5007639;28;20253;-81
2022/10/04 15:07:18;;;;;;;2.25;1.80;;;15.30;99.90;;;;;;5025705;28;20699;-80
2022/10/04 15:10:17;;;;;;;3.85;1.90;;;15.30;99.90;;;;;;5001591;28;20230;-80
2022/10/04 15:13:18;;;;;;;3.45;2.00;;;15.30;99.90;;;;;;5026366;28;20217;-80
2022/10/04 18:03:42;;;;;;;10.13;5.78;;;13.50;99.90;;;;;;4962570;28;20594;-82
2022/10/04 18:06:36;;;;;;;9.43;5.57;;;13.50;99.90;;;;;;4951022;28;20231;-82
2022/10/04 18:09:32;;;;;;;10.68;6.07;;;13.40;99.90;;;;;;4951843;28;20303;-81
2022/10/04 18:12:29;;;;;;;10.43;5.93;;;13.40;99.90;;;;;;4953607;28;20230;-81
2022/10/04 18:15:24;;;;;;;9.40;5.35;;;13.40;99.90;;;;;;4956409;28;20211;-81
2022/10/04 18:18:17;;;;;;;13.60;5.95;;;13.40;99.90;;;;;;4951108;28;20219;-81
2022/10/04 18:21:26;;;;;;;10.38;5.80;;;13.30;99.90;;;;;;4950727;28;20212;-81
2022/10/04 18:24:24;;;;;;;12.88;6.20;;;13.30;99.90;;;;;;4955666;28;20215;-80
2022/10/04 18:27:24;;;;;;;9.75;5.70;;;13.30;99.90;;;;;;4946761;28;20738;-79
2022/10/04 18:30:21;;;;;;;10.77;5.70;;;13.20;99.90;;;;;;4955027;28;20364;-80
2022/10/04 18:33:16;;;;;;;12.18;6.10;;;13.20;99.90;;;;;;4951848;28;20683;-79
2022/10/04 18:36:17;;;;;;;11.52;6.75;;;13.30;99.90;;;;;;4951869;28;20215;-80
2022/10/04 18:39:19;;;;;;;11.77;5.90;;;13.20;99.90;;;;;;4954907;28;20224;-80
2022/10/04 18:42:22;;;;;;;10.32;5.68;;;13.20;99.90;;;;;;4952882;28;20711;-80
2022/10/04 18:45:23;;;;;;;11.20;6.50;;;13.20;99.90;;;;;;4959335;28;20687;-87
2022/10/04 18:48:18;;;;;;;12.07;6.43;;;13.30;99.90;;;;;;4973817;28;20234;-80
2022/10/04 18:51:39;;;;;;;16.23;6.72;;;13.10;99.90;;;;;;4974469;28;20365;-81
2022/10/04 18:54:41;;;;;;;12.40;6.90;;;13.10;99.90;;;;;;4980911;28;20350;-84